createdAt,value
2023-10-21T00:01:51.835Z,3.40
2023-10-21T00:04:20.175Z,3.20
2023-10-21T00:06:49.057Z,3.00
2023-10-21T00:09:17.441Z,3.30
2023-10-21T00:11:45.830Z,3.50
2023-10-21T00:14:14.697Z,3.10
2023-10-21T00:16:42.983Z,3.40
2023-10-21T00:19:12.372Z,3.30
2023-10-21T00:21:40.780Z,3.90
2023-10-21T00:24:09.359Z,3.00
2023-10-21T00:26:49.142Z,3.30
2023-10-21T00:29:18.155Z,2.90
2023-10-21T00:31:46.598Z,2.80
2023-10-21T00:34:14.983Z,2.70
2023-10-21T00:36:44.138Z,3.00
2023-10-21T00:39:12.826Z,3.20
2023-10-21T00:41:41.660Z,3.40
2023-10-21T00:44:10.005Z,3.60
2023-10-21T00:46:38.465Z,3.00
2023-10-21T00:49:06.951Z,3.40
2023-10-21T00:51:36.827Z,3.70
2023-10-21T00:54:05.757Z,3.50
2023-10-21T00:56:34.109Z,2.90
2023-10-21T00:59:02.686Z,4.10
2023-10-21T01:01:31.158Z,3.10
2023-10-21T01:03:59.694Z,3.50
2023-10-21T01:06:28.136Z,3.30
2023-10-21T01:08:56.496Z,2.90
2023-10-21T01:11:24.762Z,2.50
2023-10-21T01:13:53.466Z,3.10
2023-10-21T01:16:21.933Z,3.20
2023-10-21T01:18:50.461Z,3.40
2023-10-21T01:21:18.839Z,3.20
2023-10-21T01:23:47.994Z,3.20
2023-10-21T01:26:16.431Z,2.00
2023-10-21T01:28:44.850Z,2.90
2023-10-21T01:31:13.092Z,2.70
2023-10-21T01:33:41.626Z,4.50
2023-10-21T01:36:10.287Z,3.80
2023-10-21T01:38:40.393Z,4.00
2023-10-21T01:41:11.811Z,3.20
2023-10-21T01:43:41.506Z,3.20
2023-10-21T01:46:09.859Z,3.20
2023-10-21T01:48:38.242Z,6.10
2023-10-21T01:51:06.597Z,3.20
2023-10-21T01:53:35.042Z,3.40
2023-10-21T01:56:04.064Z,3.10
2023-10-21T01:58:35.741Z,3.30
2023-10-21T02:01:12.981Z,3.10
2023-10-21T02:03:44.901Z,3.40
2023-10-21T02:06:13.497Z,3.20
2023-10-21T02:08:41.792Z,2.50
2023-10-21T02:11:10.117Z,3.00
2023-10-21T02:13:38.409Z,3.10
2023-10-21T02:16:11.388Z,3.10
2023-10-21T02:18:39.986Z,3.20
2023-10-21T02:21:09.019Z,3.40
2023-10-21T02:23:37.630Z,4.00
2023-10-21T02:26:08.017Z,3.60
2023-10-21T02:28:36.494Z,3.00
2023-10-21T02:31:04.894Z,3.10
2023-10-21T02:33:33.289Z,4.30
2023-10-21T02:36:01.759Z,4.00
2023-10-21T02:38:30.617Z,3.50
2023-10-21T02:40:58.945Z,3.10
2023-10-21T02:43:28.382Z,5.90
2023-10-21T02:45:56.692Z,4.10
2023-10-21T02:48:25.562Z,3.80
2023-10-21T02:50:54.705Z,3.50
2023-10-21T02:53:23.088Z,4.20
2023-10-21T02:55:51.505Z,3.60
2023-10-21T02:58:19.761Z,4.30
2023-10-21T03:00:49.455Z,3.30
2023-10-21T03:03:17.872Z,3.00
2023-10-21T03:05:46.340Z,3.50
2023-10-21T03:08:14.648Z,3.90
2023-10-21T03:10:42.937Z,3.90
2023-10-21T03:13:11.188Z,3.80
2023-10-21T03:15:39.454Z,4.30
2023-10-21T03:18:07.814Z,3.40
2023-10-21T03:20:36.236Z,3.10
2023-10-21T03:23:04.978Z,3.00
2023-10-21T03:25:34.729Z,3.40
2023-10-21T03:28:03.153Z,3.40
2023-10-21T03:30:31.492Z,2.90
2023-10-21T03:32:59.788Z,3.30
2023-10-21T03:35:28.046Z,3.60
2023-10-21T03:37:56.515Z,3.80
2023-10-21T03:40:24.809Z,4.00
2023-10-21T03:42:53.692Z,3.70
2023-10-21T03:45:22.530Z,4.40
2023-10-21T03:47:50.835Z,3.30
2023-10-21T03:50:19.200Z,3.60
2023-10-21T03:52:47.458Z,3.50
2023-10-21T03:55:15.719Z,2.90
2023-10-21T03:57:44.226Z,3.80
2023-10-21T04:00:13.741Z,3.70
2023-10-21T04:02:42.219Z,3.50
2023-10-21T04:05:10.621Z,4.50
2023-10-21T04:07:38.922Z,4.10
2023-10-21T04:10:08.096Z,4.60
2023-10-21T04:12:36.310Z,3.60
2023-10-21T04:15:05.324Z,3.40
2023-10-21T04:17:33.622Z,3.10
2023-10-21T04:20:01.966Z,4.40
2023-10-21T04:22:30.379Z,3.80
2023-10-21T04:24:58.781Z,4.30
2023-10-21T04:27:27.627Z,3.60
2023-10-21T04:29:56.113Z,4.00
2023-10-21T04:32:26.038Z,3.70
2023-10-21T04:34:56.198Z,3.40
2023-10-21T04:37:24.505Z,3.90
2023-10-21T04:39:54.337Z,4.40
2023-10-21T04:42:22.781Z,4.80
2023-10-21T04:44:51.222Z,3.90
2023-10-21T04:47:19.658Z,3.70
2023-10-21T04:49:47.975Z,2.70
2023-10-21T04:52:17.017Z,3.00
2023-10-21T04:54:45.537Z,4.40
2023-10-21T04:57:13.847Z,3.40
2023-10-21T04:59:42.227Z,3.80
2023-10-21T05:02:10.539Z,3.50
2023-10-21T05:04:40.450Z,3.30
2023-10-21T05:07:09.188Z,3.50
2023-10-21T05:09:37.523Z,3.50
2023-10-21T05:12:06.003Z,3.40
2023-10-21T05:14:34.504Z,3.00
2023-10-21T05:17:03.219Z,3.80
2023-10-21T05:19:32.017Z,4.40
2023-10-21T05:22:01.019Z,3.70
2023-10-21T05:24:29.365Z,3.80
2023-10-21T05:26:57.706Z,3.80
2023-10-21T05:29:26.019Z,3.10
2023-10-21T05:31:55.038Z,3.40
2023-10-21T05:34:23.408Z,3.70
2023-10-21T05:36:51.797Z,3.70
2023-10-21T05:39:20.282Z,3.70
2023-10-21T05:41:48.906Z,4.00
2023-10-21T05:44:17.277Z,3.50
2023-10-21T05:46:45.649Z,3.50
2023-10-21T05:49:14.300Z,3.80
2023-10-21T05:51:43.494Z,4.40
2023-10-21T05:54:11.755Z,3.70
2023-10-21T05:56:40.114Z,4.10
2023-10-21T05:59:08.374Z,3.10
2023-10-21T06:01:37.427Z,3.80
2023-10-21T06:04:06.374Z,4.00
2023-10-21T06:06:34.679Z,3.50
2023-10-21T06:09:03.879Z,4.20
2023-10-21T06:11:32.223Z,4.10
2023-10-21T06:14:01.155Z,4.90
2023-10-21T06:16:29.574Z,3.30
2023-10-21T06:18:57.845Z,3.50
2023-10-21T06:21:26.319Z,3.80
2023-10-21T06:23:54.778Z,3.80
2023-10-21T06:26:23.085Z,3.40
2023-10-21T06:28:51.380Z,3.80
2023-10-21T06:31:19.635Z,3.70
2023-10-21T06:33:48.161Z,3.60
2023-10-21T06:36:16.901Z,4.40
2023-10-21T06:38:45.148Z,3.70
2023-10-21T06:41:14.980Z,4.00
2023-10-21T06:43:43.636Z,5.10
2023-10-21T06:46:12.711Z,6.20
2023-10-21T06:48:41.140Z,6.00
2023-10-21T06:51:09.441Z,6.70
2023-10-21T06:53:37.810Z,6.00
2023-10-21T06:56:12.237Z,5.10
2023-10-21T06:58:45.578Z,5.00
2023-10-21T07:01:13.841Z,5.20
2023-10-21T07:03:42.164Z,5.50
2023-10-21T07:06:10.562Z,6.30
2023-10-21T07:08:39.023Z,6.40
2023-10-21T07:11:07.318Z,6.10
2023-10-21T07:13:35.552Z,5.00
2023-10-21T07:16:14.322Z,3.90
2023-10-21T07:18:42.758Z,6.50
2023-10-21T07:21:11.064Z,6.30
2023-10-21T07:23:39.342Z,5.90
2023-10-21T07:26:08.660Z,4.60
2023-10-21T07:28:36.909Z,3.50
2023-10-21T07:31:05.277Z,3.50
2023-10-21T07:33:33.740Z,4.60
2023-10-21T07:36:02.399Z,3.10
2023-10-21T07:38:30.699Z,3.80
2023-10-21T07:40:58.893Z,3.60
2023-10-21T07:43:27.282Z,3.70
2023-10-21T07:45:55.777Z,3.10
2023-10-21T07:48:26.227Z,3.50
2023-10-21T07:50:55.187Z,4.20
2023-10-21T07:53:23.466Z,3.90
2023-10-21T07:55:51.874Z,3.40
2023-10-21T07:58:20.413Z,3.20
2023-10-21T08:00:48.724Z,3.00
2023-10-21T08:03:17.094Z,3.40
2023-10-21T08:05:45.593Z,3.40
2023-10-21T08:08:14.709Z,3.70
2023-10-21T08:10:43.049Z,4.10
2023-10-21T08:13:11.378Z,3.80
2023-10-21T08:15:39.831Z,2.60
2023-10-21T08:18:09.072Z,3.20
2023-10-21T08:20:38.691Z,3.20
2023-10-21T08:23:09.060Z,3.40
2023-10-21T08:25:37.987Z,3.30
2023-10-21T08:28:06.501Z,3.70
2023-10-21T08:30:34.841Z,3.30
2023-10-21T08:33:06.710Z,3.50
2023-10-21T08:35:35.605Z,4.60
2023-10-21T08:38:04.089Z,4.50
2023-10-21T08:40:32.414Z,4.50
2023-10-21T08:43:02.904Z,3.90
2023-10-21T08:45:32.595Z,3.00
2023-10-21T08:48:02.553Z,3.50
2023-10-21T08:50:37.280Z,3.60
2023-10-21T08:53:12.708Z,3.40
2023-10-21T08:55:41.963Z,3.00
2023-10-21T08:58:10.354Z,2.90
2023-10-21T09:00:40.116Z,3.50
2023-10-21T09:03:10.648Z,2.80
2023-10-21T09:06:05.238Z,3.00
2023-10-21T09:08:35.689Z,3.00
2023-10-21T09:11:08.306Z,3.20
2023-10-21T09:13:37.548Z,3.10
2023-10-21T09:16:22.651Z,3.20
2023-10-21T09:19:05.359Z,3.80
2023-10-21T09:21:38.732Z,3.10
2023-10-21T09:24:12.557Z,4.00
2023-10-21T09:26:42.967Z,2.60
2023-10-21T09:29:13.297Z,3.70
2023-10-21T09:31:55.958Z,3.40
2023-10-21T09:34:26.853Z,2.90
2023-10-21T09:36:56.864Z,2.90
2023-10-21T09:39:27.932Z,3.50
2023-10-21T09:41:56.386Z,3.70
2023-10-21T09:44:27.055Z,3.50
2023-10-21T09:47:01.423Z,3.00
2023-10-21T09:49:34.510Z,3.20
2023-10-21T09:52:11.726Z,3.00
2023-10-21T09:54:45.580Z,3.00
2023-10-21T09:57:14.459Z,4.20
2023-10-21T09:59:47.644Z,3.70
2023-10-21T10:02:17.426Z,4.90
2023-10-21T10:04:46.461Z,3.80
2023-10-21T10:07:33.755Z,4.20
2023-10-21T10:10:07.941Z,3.40
2023-10-21T10:12:41.952Z,3.70
2023-10-21T10:15:30.376Z,3.00
2023-10-21T10:18:00.082Z,3.60
2023-10-21T10:20:29.155Z,3.50
2023-10-21T10:23:00.299Z,4.00
2023-10-21T10:25:34.759Z,3.50
2023-10-21T10:28:06.449Z,3.30
2023-10-21T10:30:47.741Z,3.30
2023-10-21T10:33:23.569Z,3.20
2023-10-21T10:35:54.242Z,3.50
2023-10-21T10:38:32.639Z,3.00
2023-10-21T10:41:20.544Z,3.10
2023-10-21T10:43:55.588Z,3.10
2023-10-21T10:46:25.106Z,4.00
2023-10-21T10:48:53.941Z,3.30
2023-10-21T10:51:32.493Z,3.70
2023-10-21T10:54:01.880Z,3.00
2023-10-21T10:56:41.558Z,3.50
2023-10-21T10:59:14.774Z,3.40
2023-10-21T11:01:43.387Z,3.60
2023-10-21T11:04:12.138Z,3.50
2023-10-21T11:06:41.286Z,3.70
2023-10-21T11:09:18.572Z,4.40
2023-10-21T11:12:06.593Z,3.90
2023-10-21T11:14:40.030Z,3.40
2023-10-21T11:17:08.899Z,3.50
2023-10-21T11:19:37.547Z,4.00
2023-10-21T11:22:09.828Z,3.30
2023-10-21T11:24:38.591Z,4.00
2023-10-21T11:27:07.884Z,4.40
2023-10-21T11:29:39.060Z,3.60
2023-10-21T11:32:15.054Z,3.30
2023-10-21T11:34:46.314Z,2.60
2023-10-21T11:37:33.894Z,2.40
2023-10-21T11:40:03.205Z,3.50
2023-10-21T11:42:31.524Z,4.20
2023-10-21T11:45:02.823Z,4.90
2023-10-21T11:47:32.641Z,5.60
2023-10-21T11:50:01.085Z,4.50
2023-10-21T11:52:29.378Z,3.70
2023-10-21T11:55:12.917Z,3.40
2023-10-21T11:57:47.648Z,2.00
2023-10-21T12:00:35.155Z,1.50
2023-10-21T12:03:22.578Z,2.30
2023-10-21T12:06:09.878Z,2.60
2023-10-21T12:08:57.908Z,2.80
2023-10-21T12:11:28.979Z,4.80
2023-10-21T12:14:09.998Z,6.00
2023-10-21T12:17:04.454Z,6.20
2023-10-21T12:20:12.504Z,3.70
2023-10-21T12:23:04.109Z,2.10
2023-10-21T12:25:51.488Z,1.90
2023-10-21T12:28:40.001Z,1.40
2023-10-21T12:31:28.536Z,1.70
2023-10-21T12:34:00.014Z,2.20
2023-10-21T12:36:35.658Z,1.90
2023-10-21T12:39:24.415Z,2.00
2023-10-21T12:41:53.918Z,1.70
2023-10-21T12:44:26.981Z,1.60
2023-10-21T12:46:59.349Z,1.50
2023-10-21T12:52:00.001Z,1.70
2023-10-21T12:54:32.784Z,1.60
2023-10-21T12:57:01.270Z,1.60
2023-10-21T12:59:29.760Z,1.50
2023-10-21T13:01:58.163Z,2.10
2023-10-21T13:04:26.621Z,1.50
2023-10-21T13:06:55.175Z,1.40
2023-10-21T13:09:25.886Z,1.30
2023-10-21T13:11:54.840Z,2.10
2023-10-21T13:14:25.438Z,1.60
2023-10-21T13:16:54.396Z,1.30
2023-10-21T13:19:28.746Z,1.90
2023-10-21T13:21:57.429Z,1.90
2023-10-21T13:24:25.769Z,1.50
2023-10-21T13:26:54.198Z,1.30
2023-10-21T13:29:22.499Z,2.00
2023-10-21T13:31:51.328Z,1.80
2023-10-21T13:34:19.698Z,1.80
2023-10-21T13:36:47.935Z,1.60
2023-10-21T13:39:23.695Z,1.40
2023-10-21T13:41:52.031Z,3.80
2023-10-21T13:44:20.373Z,3.10
2023-10-21T13:46:48.830Z,3.80
2023-10-21T13:49:17.684Z,3.60
2023-10-21T13:51:47.348Z,4.50
2023-10-21T13:54:16.371Z,3.20
2023-10-21T13:56:45.248Z,2.70
2023-10-21T13:59:17.337Z,4.00
2023-10-21T14:01:45.956Z,3.40
2023-10-21T14:04:16.111Z,3.80
2023-10-21T14:06:45.182Z,4.30
2023-10-21T14:09:31.507Z,5.00
2023-10-21T14:11:59.796Z,5.90
2023-10-21T14:14:28.130Z,5.50
2023-10-21T14:16:56.463Z,4.20
2023-10-21T14:19:24.777Z,4.20
2023-10-21T14:21:53.073Z,4.30
2023-10-21T14:24:21.428Z,5.20
2023-10-21T14:26:49.752Z,4.50
2023-10-21T14:29:18.061Z,4.00
2023-10-21T14:31:48.865Z,4.10
2023-10-21T14:34:17.945Z,4.60
2023-10-21T14:36:47.144Z,4.00
2023-10-21T14:39:16.657Z,4.40
2023-10-21T14:41:45.023Z,3.60
2023-10-21T14:44:13.302Z,4.20
2023-10-21T14:46:41.729Z,3.90
2023-10-21T14:49:10.137Z,4.50
2023-10-21T14:51:38.421Z,4.70
2023-10-21T14:54:08.006Z,5.20
2023-10-21T14:56:36.881Z,4.30
2023-10-21T14:59:06.923Z,4.20
2023-10-21T15:01:36.427Z,4.10
2023-10-21T15:04:08.606Z,3.80
2023-10-21T15:06:37.409Z,3.30
2023-10-21T15:09:06.045Z,4.60
2023-10-21T15:11:34.525Z,4.50
2023-10-21T15:14:02.800Z,5.20
2023-10-21T15:16:31.195Z,4.30
2023-10-21T15:18:59.778Z,5.00
2023-10-21T15:21:28.152Z,4.40
2023-10-21T15:23:57.512Z,3.60
2023-10-21T15:26:25.949Z,4.10
2023-10-21T15:28:54.182Z,5.00
2023-10-21T15:31:22.466Z,4.00
2023-10-21T15:33:51.034Z,4.00
2023-10-21T15:36:19.465Z,3.70
2023-10-21T15:38:53.924Z,3.40
2023-10-21T15:41:24.209Z,3.80
2023-10-21T15:43:53.584Z,3.70
2023-10-21T15:46:22.558Z,3.90
2023-10-21T15:48:51.004Z,4.40
2023-10-21T15:51:19.421Z,4.10
2023-10-21T15:53:47.722Z,3.90
2023-10-21T15:56:17.110Z,4.50
2023-10-21T15:58:45.461Z,4.90
2023-10-21T16:01:13.816Z,3.60
2023-10-21T16:03:42.307Z,4.50
2023-10-21T16:06:13.056Z,5.00
2023-10-21T16:08:41.916Z,5.00
2023-10-21T16:11:10.446Z,4.90
2023-10-21T16:13:38.863Z,4.20
2023-10-21T16:16:07.775Z,5.10
2023-10-21T16:18:36.113Z,4.70
2023-10-21T16:21:05.214Z,4.20
2023-10-21T16:23:33.536Z,4.20
2023-10-21T16:26:02.031Z,4.00
2023-10-21T16:28:31.148Z,4.50
2023-10-21T16:31:06.983Z,4.10
2023-10-21T16:33:36.051Z,3.80
2023-10-21T16:36:06.259Z,3.80
2023-10-21T16:38:36.375Z,3.60
2023-10-21T16:41:05.095Z,4.80
2023-10-21T16:43:37.464Z,4.00
2023-10-21T16:46:06.087Z,5.30
2023-10-21T16:48:34.664Z,4.50
2023-10-21T16:51:03.129Z,4.70
2023-10-21T16:53:32.509Z,4.40
2023-10-21T16:56:01.277Z,5.90
2023-10-21T16:58:29.863Z,4.50
2023-10-21T17:00:58.412Z,4.30
2023-10-21T17:03:26.898Z,4.60
2023-10-21T17:05:56.620Z,5.00
2023-10-21T17:08:25.623Z,3.80
2023-10-21T17:10:53.885Z,4.00
2023-10-21T17:13:22.499Z,4.70
2023-10-21T17:15:50.862Z,4.60
2023-10-21T17:18:19.200Z,4.30
2023-10-21T17:20:48.580Z,4.50
2023-10-21T17:23:16.913Z,4.20
2023-10-21T17:25:47.540Z,5.30
2023-10-21T17:28:16.069Z,7.30
2023-10-21T17:30:44.714Z,4.80
2023-10-21T17:33:13.168Z,4.40
2023-10-21T17:35:41.601Z,4.20
2023-10-21T17:38:09.866Z,4.30
2023-10-21T17:40:38.228Z,4.00
2023-10-21T17:43:07.037Z,4.40
2023-10-21T17:45:35.631Z,4.00
2023-10-21T17:48:06.313Z,3.30
2023-10-21T17:50:36.145Z,3.60
2023-10-21T17:53:04.999Z,3.30
2023-10-21T17:55:33.872Z,3.80
2023-10-21T17:58:02.555Z,3.70
2023-10-21T18:00:31.720Z,4.20
2023-10-21T18:03:02.273Z,3.50
2023-10-21T18:05:30.632Z,3.70
2023-10-21T18:08:00.610Z,3.40
2023-10-21T18:10:29.244Z,3.50
2023-10-21T18:12:57.768Z,4.10
2023-10-21T18:15:26.325Z,5.20
2023-10-21T18:17:54.721Z,4.10
2023-10-21T18:20:23.097Z,5.00
2023-10-21T18:22:51.580Z,3.60
2023-10-21T18:25:19.904Z,3.40
2023-10-21T18:27:48.175Z,3.80
2023-10-21T18:30:16.613Z,3.70
2023-10-21T18:32:45.029Z,3.80
2023-10-21T18:35:13.401Z,3.80
2023-10-21T18:37:42.965Z,3.70
2023-10-21T18:40:11.735Z,4.20
2023-10-21T18:42:40.080Z,5.10
2023-10-21T18:45:09.034Z,3.60
2023-10-21T18:47:37.406Z,3.00
2023-10-21T18:50:08.027Z,4.10
2023-10-21T18:52:36.437Z,3.50
2023-10-21T18:55:04.939Z,3.60
2023-10-21T18:57:33.284Z,3.40
2023-10-21T19:00:01.606Z,3.60
2023-10-21T19:02:30.654Z,4.30
2023-10-21T19:04:59.151Z,3.80
2023-10-21T19:07:27.882Z,4.20
2023-10-21T19:09:58.149Z,4.00
2023-10-21T19:12:26.891Z,4.60
2023-10-21T19:14:55.364Z,3.90
2023-10-21T19:17:23.697Z,3.80
2023-10-21T19:19:54.939Z,4.10
2023-10-21T19:22:23.249Z,4.00
2023-10-21T19:24:51.570Z,4.70
2023-10-21T19:27:19.961Z,5.50
2023-10-21T19:29:52.871Z,4.90
2023-10-21T19:32:21.216Z,4.30
2023-10-21T19:34:49.603Z,4.40
2023-10-21T19:37:17.888Z,4.20
2023-10-21T19:39:46.424Z,4.70
2023-10-21T19:42:15.020Z,4.80
2023-10-21T19:44:43.336Z,3.90
2023-10-21T19:47:11.701Z,4.20
2023-10-21T19:49:40.049Z,5.20
2023-10-21T19:52:08.367Z,4.40
2023-10-21T19:54:36.823Z,3.80
2023-10-21T19:57:05.295Z,4.20
2023-10-21T19:59:33.588Z,4.00
2023-10-21T20:02:01.879Z,3.80
2023-10-21T20:04:30.296Z,4.20
2023-10-21T20:06:59.098Z,4.30
2023-10-21T20:09:27.439Z,4.00
2023-10-21T20:11:55.782Z,5.00
2023-10-21T20:14:24.059Z,5.00
2023-10-21T20:16:52.314Z,4.80
2023-10-21T20:19:20.610Z,4.50
2023-10-21T20:21:48.923Z,4.50
2023-10-21T20:24:17.261Z,4.40
2023-10-21T20:26:45.493Z,3.90
2023-10-21T20:29:14.666Z,5.40
2023-10-21T20:31:42.946Z,4.70
2023-10-21T20:34:11.236Z,4.10
2023-10-21T20:36:39.689Z,3.50
2023-10-21T20:39:07.968Z,3.80
2023-10-21T20:41:40.853Z,4.50
2023-10-21T20:44:09.204Z,3.60
2023-10-21T20:46:37.487Z,3.40
2023-10-21T20:49:05.939Z,3.30
2023-10-21T20:51:35.816Z,3.40
2023-10-21T20:54:04.369Z,2.80
2023-10-21T20:56:34.486Z,3.20
2023-10-21T20:59:05.840Z,3.30
2023-10-21T21:01:37.885Z,3.00
2023-10-21T21:04:08.038Z,2.80
2023-10-21T21:06:38.141Z,3.30
2023-10-21T21:09:09.288Z,3.40
2023-10-21T21:11:37.656Z,2.80
2023-10-21T21:14:06.561Z,3.60
2023-10-21T21:16:37.612Z,3.30
2023-10-21T21:19:06.267Z,3.00
2023-10-21T21:21:35.159Z,3.30
2023-10-21T21:24:06.970Z,3.80
2023-10-21T21:26:35.856Z,4.60
2023-10-21T21:29:04.286Z,3.90
2023-10-21T21:31:32.721Z,4.30
2023-10-21T21:34:01.101Z,3.80
2023-10-21T21:36:33.057Z,4.50
2023-10-21T21:39:01.463Z,4.50
2023-10-21T21:41:29.943Z,3.80
2023-10-21T21:43:58.200Z,3.60
2023-10-21T21:46:26.497Z,3.70
2023-10-21T21:48:55.262Z,3.50
2023-10-21T21:51:23.710Z,3.60
2023-10-21T21:53:52.100Z,4.20
2023-10-21T21:56:20.461Z,4.10
2023-10-21T21:58:49.556Z,3.30
2023-10-21T22:01:30.232Z,2.90
2023-10-21T22:03:59.947Z,3.40
2023-10-21T22:06:28.793Z,3.00
2023-10-21T22:08:58.087Z,3.10
2023-10-21T22:11:27.247Z,4.80
2023-10-21T22:13:55.612Z,3.30
2023-10-21T22:16:24.106Z,3.80
2023-10-21T22:18:52.609Z,2.80
2023-10-21T22:21:21.456Z,3.40
2023-10-21T22:24:01.132Z,4.50
2023-10-21T22:26:31.360Z,3.10
2023-10-21T22:29:04.710Z,3.40
2023-10-21T22:31:33.217Z,3.30
2023-10-21T22:34:01.573Z,3.40
2023-10-21T22:36:29.913Z,3.70
2023-10-21T22:38:58.236Z,4.00
2023-10-21T22:41:26.890Z,3.70
2023-10-21T22:43:55.159Z,3.90
2023-10-21T22:46:23.503Z,3.60
2023-10-21T22:48:51.853Z,2.40
2023-10-21T22:51:20.296Z,2.70
2023-10-21T22:53:48.795Z,3.00
2023-10-21T22:56:17.168Z,3.10
2023-10-21T22:58:45.540Z,4.10
2023-10-21T23:01:14.946Z,2.80
2023-10-21T23:03:43.580Z,2.40
2023-10-21T23:06:12.642Z,2.60
2023-10-21T23:08:41.056Z,2.30
2023-10-21T23:11:10.370Z,2.50
2023-10-21T23:13:39.139Z,2.20
2023-10-21T23:16:08.018Z,3.10
2023-10-21T23:18:38.759Z,2.80
2023-10-21T23:21:08.034Z,2.70
2023-10-21T23:23:36.595Z,2.70
2023-10-21T23:26:05.020Z,3.10
2023-10-21T23:28:34.455Z,2.20
2023-10-21T23:31:03.762Z,2.90
2023-10-21T23:33:32.377Z,3.20
2023-10-21T23:36:05.677Z,3.00
2023-10-21T23:38:34.473Z,2.50
2023-10-21T23:41:08.068Z,3.00
2023-10-21T23:43:36.514Z,2.50
2023-10-21T23:46:09.201Z,3.80
2023-10-21T23:48:37.941Z,2.50
2023-10-21T23:51:06.514Z,3.00
2023-10-21T23:53:35.840Z,2.80
2023-10-21T23:56:04.348Z,2.20
2023-10-21T23:58:32.650Z,3.20
